KCAR/CAR METAR and TAF weather

Enter ICAO airport designator
Station Type Date Time Source
KCAR METAR 2019/08/25 07:54 UTC NOAA

KCAR 250754Z AUTO 00000KT 10SM CLR 08/07 A3037 RMK AO2 SLP288 T00830067


Station Type Date Time Source
KCAR Decoded METAR 2019/08/25 07:54 UTC NOAA

Station name not available
Aug 25, 2019 - 03:54 AM EDT / 2019.08.25 0754 UTC
Wind: Calm:0
Visibility: 10 mile(s):0
Sky conditions: clear
Temperature: 46.9 F (8.3 C)
Dew Point: 44.1 F (6.7 C)
Relative Humidity: 89%
Pressure (altimeter): 30.37 in. Hg (1028 hPa)
ob: KCAR 250754Z AUTO 00000KT 10SM CLR 08/07 A3037 RMK AO2 SLP288 T00830067
cycle: 8

Station Type Date Time Source
KCAR TAF 2019/08/25 06:22 UTC NOAA

TAF KCAR 250520Z 2506/2606 00000KT P6SM SKC
TEMPO 2509/2511 2SM BR

Example: see airport list